Time;durP1;ratioP1;P1;durP2;ratioP2;P2;SDS_P1;SDS_P2;PMS_P1;PMS_P2;Temp;Humidity;BMP_temperature;BMP_pressure;BME280_temperature;BME280_humidity;BME280_pressure;Samples;Min_cycle;Max_cycle;Signal;HPM_P1;HPM_P2
2023/02/12 00:01:13;;;;;;;10.65;5.18;;;8.00;99.90;;;;;;4996670;28;20043;-72
2023/02/12 00:03:40;;;;;;;12.75;5.97;;;8.00;99.90;;;;;;4995807;28;20026;-73
2023/02/12 00:06:06;;;;;;;10.60;5.75;;;8.00;99.90;;;;;;4992314;28;20116;-72
2023/02/12 00:08:32;;;;;;;14.32;5.07;;;7.90;99.90;;;;;;5000696;28;20073;-72
2023/02/12 00:10:58;;;;;;;17.38;6.97;;;8.00;99.90;;;;;;4992260;28;20116;-72
2023/02/12 00:13:23;;;;;;;10.13;5.68;;;8.00;99.90;;;;;;5000339;28;20077;-72
2023/02/12 00:15:49;;;;;;;13.15;6.40;;;8.00;99.90;;;;;;4996663;28;20038;-72
2023/02/12 00:18:15;;;;;;;11.85;5.63;;;8.00;99.90;;;;;;5002622;28;20034;-72
2023/02/12 00:20:40;;;;;;;10.45;5.63;;;8.00;99.90;;;;;;4996246;28;20068;-72
2023/02/12 00:23:06;;;;;;;16.85;6.15;;;8.00;99.90;;;;;;4997159;28;20088;-72
2023/02/12 00:25:33;;;;;;;12.10;5.93;;;8.00;99.90;;;;;;5009391;28;20045;-72
2023/02/12 00:27:58;;;;;;;16.13;6.35;;;7.90;99.90;;;;;;5005206;28;20022;-73
2023/02/12 00:30:24;;;;;;;13.25;6.55;;;7.90;99.90;;;;;;5005725;28;20443;-73
2023/02/12 00:32:49;;;;;;;14.13;6.13;;;7.90;99.90;;;;;;4979877;28;20034;-74
2023/02/12 00:35:15;;;;;;;12.88;6.10;;;7.90;99.90;;;;;;4979825;28;20034;-73
2023/02/12 00:37:40;;;;;;;12.80;5.70;;;7.90;99.90;;;;;;4978886;28;20182;-72
2023/02/12 00:40:07;;;;;;;10.63;4.88;;;7.90;99.90;;;;;;4981243;28;20762;-74
2023/02/12 00:42:32;;;;;;;18.27;5.90;;;7.90;99.90;;;;;;4972306;28;20042;-72
2023/02/12 00:44:58;;;;;;;10.90;5.57;;;7.90;99.90;;;;;;4956370;28;20027;-72
2023/02/12 00:47:23;;;;;;;13.88;5.80;;;7.90;99.90;;;;;;4979917;28;20034;-72
2023/02/12 00:49:49;;;;;;;13.57;5.75;;;7.90;99.90;;;;;;4977438;28;20054;-73
2023/02/12 00:52:15;;;;;;;12.65;5.65;;;7.90;99.90;;;;;;4965017;28;20495;-73
2023/02/12 00:54:40;;;;;;;14.10;5.65;;;7.90;99.90;;;;;;4974952;28;20050;-72
2023/02/12 00:57:06;;;;;;;13.85;6.00;;;7.90;99.90;;;;;;4972010;28;20031;-72
2023/02/12 00:59:31;;;;;;;16.65;6.00;;;7.90;99.90;;;;;;4974283;28;20043;-72
2023/02/12 01:01:57;;;;;;;12.68;6.28;;;7.90;99.90;;;;;;4956597;28;20027;-73
2023/02/12 01:04:23;;;;;;;11.73;5.53;;;7.90;99.90;;;;;;4956019;28;20474;-72
2023/02/12 01:06:49;;;;;;;12.80;6.03;;;7.90;99.90;;;;;;4971700;28;20046;-71
2023/02/12 01:09:14;;;;;;;15.40;7.03;;;7.90;99.90;;;;;;4954186;28;20043;-71
2023/02/12 01:11:40;;;;;;;14.02;5.93;;;7.90;99.90;;;;;;4977609;28;20034;-73
2023/02/12 01:14:06;;;;;;;18.25;6.50;;;7.90;99.90;;;;;;4969280;28;20423;-72
2023/02/12 01:16:35;;;;;;;11.50;5.22;;;7.90;99.90;;;;;;4975079;28;20042;-72
2023/02/12 01:19:01;;;;;;;15.15;5.82;;;7.90;99.90;;;;;;4973151;28;20391;-73
2023/02/12 01:21:29;;;;;;;12.45;5.65;;;7.90;99.90;;;;;;4978373;28;20026;-74
2023/02/12 01:23:55;;;;;;;19.10;6.30;;;7.90;99.90;;;;;;4971727;28;20507;-72
2023/02/12 01:26:21;;;;;;;12.95;6.18;;;7.90;99.90;;;;;;4968890;28;20464;-72
2023/02/12 01:28:51;;;;;;;13.73;6.07;;;7.90;99.90;;;;;;4969793;28;20038;-73
2023/02/12 01:31:20;;;;;;;15.33;5.80;;;7.90;99.90;;;;;;4962363;28;20034;-74
2023/02/12 01:33:50;;;;;;;9.93;5.45;;;7.90;99.90;;;;;;4973228;28;20081;-73
2023/02/12 01:36:16;;;;;;;14.15;5.88;;;7.90;99.90;;;;;;4968537;28;20031;-72
2023/02/12 01:38:42;;;;;;;14.88;5.70;;;7.90;99.90;;;;;;4968645;28;20037;-71
2023/02/12 01:41:14;;;;;;;12.65;6.13;;;7.90;99.90;;;;;;4972068;28;20372;-73
2023/02/12 01:43:40;;;;;;;13.13;6.10;;;7.90;99.90;;;;;;4976675;28;20045;-72
2023/02/12 01:46:08;;;;;;;13.73;5.95;;;7.90;99.90;;;;;;4972069;28;20062;-74
2023/02/12 01:48:41;;;;;;;14.43;7.03;;;7.90;99.90;;;;;;4968460;28;20035;-73
2023/02/12 01:51:10;;;;;;;9.63;5.05;;;7.90;99.90;;;;;;4976812;28;20038;-72
2023/02/12 01:53:42;;;;;;;15.52;6.65;;;7.90;99.90;;;;;;4968752;28;20517;-73
2023/02/12 01:56:08;;;;;;;14.63;6.68;;;7.90;99.90;;;;;;4970009;28;20039;-72
2023/02/12 01:58:38;;;;;;;12.43;6.40;;;7.80;99.90;;;;;;4985189;28;20073;-72
2023/02/12 02:01:06;;;;;;;14.27;5.88;;;7.80;99.90;;;;;;4969206;28;20086;-72
2023/02/12 02:03:34;;;;;;;12.30;6.22;;;7.80;99.90;;;;;;4968521;28;20035;-72
2023/02/12 02:06:14;;;;;;;14.00;6.20;;;7.80;99.90;;;;;;4968442;28;20034;-73
2023/02/12 02:08:41;;;;;;;13.45;6.00;;;7.80;99.90;;;;;;4980151;28;20486;-72
2023/02/12 02:14:31;;;;;;;12.55;5.80;;;7.80;99.90;;;;;;5001960;28;20031;-72
2023/02/12 02:16:43;;;;;;;15.50;6.97;;;7.80;99.90;;;;;;4980371;28;20093;-72
2023/02/12 02:19:33;;;;;;;14.40;6.20;;;7.80;99.90;;;;;;4982486;28;20027;-72
2023/02/12 02:22:23;;;;;;;17.52;7.32;;;7.80;99.90;;;;;;4982063;28;20051;-72
2023/02/12 02:25:33;;;;;;;18.37;6.97;;;7.80;99.90;;;;;;4976907;28;20041;-72
2023/02/12 02:28:20;;;;;;;14.15;5.95;;;7.80;99.90;;;;;;4964682;28;20769;-72
2023/02/12 02:31:03;;;;;;;14.30;6.90;;;7.80;99.90;;;;;;4973758;28;20617;-72
2023/02/12 02:33:56;;;;;;;22.80;6.18;;;7.80;99.90;;;;;;4976626;28;20534;-75
2023/02/12 02:36:27;;;;;;;14.13;6.90;;;7.80;99.90;;;;;;4972116;28;20050;-72
2023/02/12 02:39:20;;;;;;;12.10;6.50;;;7.80;99.90;;;;;;4979658;28;20112;-72
2023/02/12 02:41:55;;;;;;;13.25;6.68;;;7.80;99.90;;;;;;4972807;28;20033;-72
2023/02/12 02:44:30;;;;;;;12.32;6.82;;;7.80;99.90;;;;;;4985207;28;20026;-72
2023/02/12 02:46:58;;;;;;;16.20;6.32;;;7.80;99.90;;;;;;4972224;28;20030;-72
2023/02/12 02:49:28;;;;;;;13.35;6.38;;;7.80;99.90;;;;;;4972527;28;20512;-73
2023/02/12 02:52:06;;;;;;;11.23;6.03;;;7.80;99.90;;;;;;4979668;28;20027;-73
2023/02/12 02:54:41;;;;;;;15.95;6.95;;;7.70;99.90;;;;;;4971143;28;20039;-73
2023/02/12 02:57:23;;;;;;;16.25;7.07;;;7.80;99.90;;;;;;4975008;28;20491;-73
2023/02/12 02:59:54;;;;;;;18.23;7.20;;;7.80;99.90;;;;;;4971095;28;20043;-72
2023/02/12 03:02:28;;;;;;;17.70;6.82;;;7.80;99.90;;;;;;4983097;28;20035;-73
2023/02/12 03:05:05;;;;;;;14.43;7.13;;;7.80;99.90;;;;;;4978249;28;20042;-73
2023/02/12 03:07:36;;;;;;;13.90;6.93;;;7.80;99.90;;;;;;4977592;28;20042;-73
2023/02/12 03:10:17;;;;;;;19.00;6.80;;;7.80;99.90;;;;;;4978070;28;20038;-73
2023/02/12 03:12:57;;;;;;;15.00;6.60;;;7.80;99.90;;;;;;4972690;28;20046;-73
2023/02/12 03:15:46;;;;;;;18.20;6.85;;;7.80;99.90;;;;;;5002707;28;20058;-73
2023/02/12 03:18:25;;;;;;;17.92;7.40;;;7.80;99.90;;;;;;4973706;28;20049;-71
2023/02/12 03:21:00;;;;;;;14.13;7.22;;;7.80;99.90;;;;;;5013870;28;20057;-72
2023/02/12 03:23:32;;;;;;;18.67;7.30;;;7.80;99.90;;;;;;4978135;28;20041;-73
2023/02/12 03:26:17;;;;;;;17.13;6.82;;;7.80;99.90;;;;;;4976176;28;20155;-72
2023/02/12 03:28:43;;;;;;;20.70;7.05;;;7.80;99.90;;;;;;4981646;28;20042;-73
2023/02/12 03:31:38;;;;;;;19.52;7.00;;;7.80;99.90;;;;;;4980726;28;20035;-72
2023/02/12 03:34:29;;;;;;;12.52;6.45;;;7.80;99.90;;;;;;4969362;28;20043;-73
2023/02/12 03:37:11;;;;;;;13.73;6.18;;;7.80;99.90;;;;;;4975587;28;20038;-72
2023/02/12 03:39:37;;;;;;;12.70;6.32;;;7.80;99.90;;;;;;4976612;28;20047;-71
2023/02/12 03:42:08;;;;;;;13.65;7.30;;;7.80;99.90;;;;;;4979649;28;20090;-72
2023/02/12 03:44:52;;;;;;;16.63;6.75;;;7.80;99.90;;;;;;4981535;28;20037;-72
2023/02/12 03:47:43;;;;;;;18.13;6.00;;;7.80;99.90;;;;;;4989532;28;20022;-71
2023/02/12 03:50:08;;;;;;;;;;;7.80;99.90;;;;;;4981951;28;20030;-73
2023/02/12 03:52:34;;;;;;;15.63;7.22;;;7.80;99.90;;;;;;4971543;28;19914;-72
2023/02/12 03:55:00;;;;;;;15.90;6.75;;;7.80;99.90;;;;;;5006605;28;20050;-73
2023/02/12 03:57:32;;;;;;;16.52;7.07;;;7.80;99.90;;;;;;4973425;28;20510;-72
2023/02/12 04:00:02;;;;;;;14.73;5.97;;;7.80;99.90;;;;;;4978390;28;20052;-72
2023/02/12 04:02:28;;;;;;;12.67;6.73;;;7.80;99.90;;;;;;4982665;28;20371;-72
2023/02/12 04:04:54;;;;;;;15.98;6.88;;;7.80;99.90;;;;;;4973852;28;20034;-72
2023/02/12 04:07:20;;;;;;;12.02;6.57;;;7.70;99.90;;;;;;4977828;28;20035;-73
2023/02/12 04:09:45;;;;;;;13.88;6.25;;;7.70;99.90;;;;;;4968246;28;20046;-73
2023/02/12 04:12:29;;;;;;;12.35;6.03;;;7.70;99.90;;;;;;4972180;28;20035;-71
2023/02/12 04:15:51;;;;;;;16.20;7.03;;;7.70;99.90;;;;;;4974660;28;20057;-72
2023/02/12 04:18:33;;;;;;;16.50;6.78;;;7.70;99.90;;;;;;4965741;28;20518;-72
2023/02/12 04:21:23;;;;;;;10.73;5.85;;;7.70;99.90;;;;;;4992132;28;20092;-74
2023/02/12 04:24:10;;;;;;;15.40;6.57;;;7.70;99.90;;;;;;4970705;28;20042;-73
2023/02/12 04:27:05;;;;;;;11.35;5.95;;;7.70;99.90;;;;;;4986203;28;20038;-72
2023/02/12 04:29:49;;;;;;;14.60;6.72;;;7.70;99.90;;;;;;4975697;28;20381;-75
2023/02/12 04:32:31;;;;;;;11.13;5.40;;;7.70;99.90;;;;;;4972733;28;20027;-71
2023/02/12 04:35:01;;;;;;;10.50;6.20;;;7.70;99.90;;;;;;4994709;28;20046;-72
2023/02/12 04:37:41;;;;;;;14.32;6.03;;;7.70;99.90;;;;;;4984600;28;20031;-72
2023/02/12 04:40:12;;;;;;;13.05;6.50;;;7.70;99.90;;;;;;4986145;28;20042;-73
2023/02/12 04:42:46;;;;;;;12.18;6.07;;;7.70;99.90;;;;;;4980358;28;20050;-72
2023/02/12 04:45:16;;;;;;;11.60;6.13;;;7.70;99.90;;;;;;4975549;28;20042;-74
2023/02/12 04:47:41;;;;;;;15.10;6.68;;;7.70;99.90;;;;;;4967500;28;20030;-72
2023/02/12 04:50:08;;;;;;;14.15;5.70;;;7.70;99.90;;;;;;4972972;28;20043;-72
2023/02/12 04:52:33;;;;;;;12.23;6.43;;;7.70;99.90;;;;;;4979860;28;20507;-71
2023/02/12 04:54:59;;;;;;;11.95;6.05;;;7.70;99.90;;;;;;4978956;28;20054;-72
2023/02/12 04:57:24;;;;;;;20.05;8.18;;;7.70;99.90;;;;;;4970847;28;20434;-73
2023/02/12 04:59:50;;;;;;;11.15;6.07;;;7.70;99.90;;;;;;4974674;28;20046;-72
2023/02/12 05:02:15;;;;;;;16.15;6.15;;;7.70;99.90;;;;;;4977572;28;20031;-72
2023/02/12 05:04:41;;;;;;;12.75;6.70;;;7.70;99.90;;;;;;4968439;28;20129;-74
2023/02/12 05:07:06;;;;;;;14.18;6.47;;;7.70;99.90;;;;;;4977688;28;20526;-72
2023/02/12 05:09:32;;;;;;;15.05;6.30;;;7.70;99.90;;;;;;4977142;28;20039;-72
2023/02/12 05:12:00;;;;;;;11.57;6.47;;;7.70;99.90;;;;;;4984712;28;20034;-72
2023/02/12 05:14:26;;;;;;;13.45;6.55;;;7.70;99.90;;;;;;4984829;28;20081;-73
2023/02/12 05:16:51;;;;;;;14.73;6.57;;;7.70;99.90;;;;;;4967328;28;20066;-72
2023/02/12 05:19:17;;;;;;;12.38;6.47;;;7.70;99.90;;;;;;4975633;28;20035;-73
2023/02/12 05:21:43;;;;;;;11.88;6.65;;;7.70;99.90;;;;;;4969829;28;20039;-71
2023/02/12 05:24:08;;;;;;;13.18;6.65;;;7.60;99.90;;;;;;4969013;28;20062;-72
2023/02/12 05:26:35;;;;;;;12.68;6.85;;;7.60;99.90;;;;;;4971457;28;20030;-71
2023/02/12 05:29:02;;;;;;;14.13;6.57;;;7.60;99.90;;;;;;4971952;28;20058;-72
2023/02/12 05:31:27;;;;;;;15.52;7.82;;;7.60;99.90;;;;;;4975631;28;20034;-72
2023/02/12 05:33:53;;;;;;;14.57;6.60;;;7.60;99.90;;;;;;4975291;28;20390;-72
2023/02/12 05:36:21;;;;;;;13.65;6.45;;;7.60;99.90;;;;;;4983355;28;20035;-72
2023/02/12 05:38:50;;;;;;;13.90;6.45;;;7.60;99.90;;;;;;4968589;28;20392;-73
2023/02/12 05:41:21;;;;;;;12.13;6.57;;;7.60;99.90;;;;;;4973899;28;20027;-72
2023/02/12 05:43:48;;;;;;;15.18;7.35;;;7.60;99.90;;;;;;4974408;28;20074;-73
2023/02/12 05:46:14;;;;;;;13.73;6.22;;;7.60;99.90;;;;;;4971983;28;20046;-72
2023/02/12 05:48:40;;;;;;;28.60;8.00;;;7.60;99.90;;;;;;4972787;28;20109;-74
2023/02/12 05:51:15;;;;;;;14.57;6.93;;;7.60;99.90;;;;;;4985177;28;20170;-73
2023/02/12 05:53:44;;;;;;;12.00;6.07;;;7.60;99.90;;;;;;4972299;28;20710;-72
2023/02/12 05:56:10;;;;;;;13.00;6.03;;;7.60;99.90;;;;;;4977493;28;20031;-72
2023/02/12 05:58:40;;;;;;;12.43;5.85;;;7.60;99.90;;;;;;4972876;28;20027;-72
2023/02/12 06:01:19;;;;;;;10.48;6.10;;;7.60;99.90;;;;;;4972730;28;20038;-72
2023/02/12 06:03:45;;;;;;;12.25;6.78;;;7.50;99.90;;;;;;4976491;28;20510;-73
2023/02/12 06:06:11;;;;;;;11.98;6.70;;;7.50;99.90;;;;;;4974266;28;20026;-72
2023/02/12 06:08:37;;;;;;;12.20;6.68;;;7.50;99.90;;;;;;4979240;28;20019;-72
2023/02/12 06:11:05;;;;;;;12.93;6.72;;;7.50;99.90;;;;;;4980049;28;20113;-71
2023/02/12 06:13:32;;;;;;;12.88;6.50;;;7.50;99.90;;;;;;4975282;28;20032;-72
2023/02/12 06:15:58;;;;;;;14.50;6.65;;;7.50;99.90;;;;;;4988645;28;20026;-71
2023/02/12 06:18:25;;;;;;;11.90;6.55;;;7.50;99.90;;;;;;4971697;28;20074;-74
2023/02/12 06:20:53;;;;;;;12.68;6.13;;;7.50;99.90;;;;;;4976513;28;20527;-71
2023/02/12 06:23:20;;;;;;;12.07;6.60;;;7.50;99.90;;;;;;4973824;28;20030;-72
2023/02/12 06:25:47;;;;;;;14.90;7.13;;;7.50;99.90;;;;;;4973390;28;20038;-71
2023/02/12 06:28:12;;;;;;;14.55;6.75;;;7.50;99.90;;;;;;4976871;28;20038;-72
2023/02/12 06:30:38;;;;;;;17.20;7.00;;;7.50;99.90;;;;;;4972019;28;20514;-72
2023/02/12 06:33:03;;;;;;;13.75;7.35;;;7.50;99.90;;;;;;4971670;28;20042;-73
2023/02/12 06:35:29;;;;;;;12.88;6.57;;;7.50;99.90;;;;;;4971842;28;20037;-71
2023/02/12 06:37:55;;;;;;;11.73;6.63;;;7.50;99.90;;;;;;4972102;28;20483;-72
2023/02/12 06:40:21;;;;;;;11.35;5.95;;;7.50;99.90;;;;;;4971999;28;20073;-72
2023/02/12 06:42:47;;;;;;;18.33;7.45;;;7.50;99.90;;;;;;4987135;28;20066;-72
2023/02/12 06:45:12;;;;;;;13.55;6.55;;;7.50;99.90;;;;;;4974514;28;20070;-72
2023/02/12 06:47:38;;;;;;;12.88;6.72;;;7.50;99.90;;;;;;4984052;28;20034;-72
2023/02/12 06:50:04;;;;;;;11.50;6.10;;;7.60;99.90;;;;;;4986795;28;20093;-72
2023/02/12 06:52:30;;;;;;;18.65;7.43;;;7.60;99.90;;;;;;4978483;28;20039;-72
2023/02/12 06:54:55;;;;;;;16.27;6.18;;;7.60;99.90;;;;;;4972313;28;20408;-72
2023/02/12 06:57:21;;;;;;;12.00;6.28;;;7.60;99.90;;;;;;4972823;28;20399;-73
2023/02/12 06:59:48;;;;;;;16.45;6.82;;;7.60;99.90;;;;;;4977432;28;20030;-73
2023/02/12 07:02:13;;;;;;;12.45;5.68;;;7.60;99.90;;;;;;4971332;28;20439;-72
2023/02/12 07:04:39;;;;;;;15.07;6.78;;;7.60;99.90;;;;;;4990591;28;20026;-73
2023/02/12 07:07:05;;;;;;;11.75;5.80;;;7.60;99.90;;;;;;4980795;28;20069;-74
2023/02/12 07:09:31;;;;;;;12.43;6.57;;;7.60;99.90;;;;;;5013893;28;20035;-72
2023/02/12 07:11:58;;;;;;;11.95;6.45;;;7.60;99.90;;;;;;4982708;28;20045;-73
2023/02/12 07:14:23;;;;;;;11.93;6.07;;;7.60;99.90;;;;;;4979621;28;20117;-74
2023/02/12 07:16:49;;;;;;;11.65;6.20;;;7.60;99.90;;;;;;4982184;28;20799;-72
2023/02/12 07:19:15;;;;;;;12.05;5.93;;;7.60;99.90;;;;;;4978257;28;20050;-73
2023/02/12 07:21:41;;;;;;;12.30;5.85;;;7.60;99.90;;;;;;4984485;28;20049;-72
2023/02/12 07:24:10;;;;;;;14.88;7.50;;;7.60;99.90;;;;;;5013957;28;20045;-73
2023/02/12 07:26:36;;;;;;;15.07;7.15;;;7.60;99.90;;;;;;4966179;28;20082;-73
2023/02/12 07:29:02;;;;;;;12.45;5.70;;;7.60;99.90;;;;;;4968944;28;20043;-75
2023/02/12 07:31:28;;;;;;;14.30;6.10;;;7.60;99.90;;;;;;4976330;28;20038;-73
2023/02/12 07:33:58;;;;;;;16.17;7.10;;;7.60;99.90;;;;;;4971121;28;20146;-73
2023/02/12 07:36:26;;;;;;;11.85;6.80;;;7.60;99.90;;;;;;4972212;28;20555;-73
2023/02/12 07:38:53;;;;;;;11.73;5.70;;;7.60;99.90;;;;;;4974394;28;20093;-73
2023/02/12 07:41:30;;;;;;;13.77;6.85;;;7.60;99.90;;;;;;4978639;28;20030;-74
2023/02/12 07:44:06;;;;;;;14.90;7.38;;;7.60;99.90;;;;;;4972179;28;20118;-73
2023/02/12 07:46:34;;;;;;;14.73;7.50;;;7.60;99.90;;;;;;4975582;28;20027;-72
2023/02/12 07:49:04;;;;;;;15.00;6.50;;;7.70;99.90;;;;;;4969953;28;20042;-73
2023/02/12 07:51:31;;;;;;;14.45;6.65;;;7.70;99.90;;;;;;4971009;28;20043;-74
2023/02/12 07:53:57;;;;;;;12.38;6.28;;;7.70;99.90;;;;;;4971360;28;20034;-73
2023/02/12 07:56:29;;;;;;;13.02;6.10;;;7.70;99.90;;;;;;4974563;28;20026;-73
2023/02/12 07:58:55;;;;;;;15.13;7.40;;;7.60;99.90;;;;;;4971367;28;20027;-72
2023/02/12 08:01:25;;;;;;;13.23;6.47;;;7.70;99.90;;;;;;4971057;28;20027;-74
2023/02/12 08:03:51;;;;;;;12.70;6.05;;;7.70;99.90;;;;;;4972279;28;20030;-75
2023/02/12 08:06:22;;;;;;;13.73;7.10;;;7.70;99.90;;;;;;4973139;28;20403;-72
2023/02/12 08:08:50;;;;;;;13.13;6.70;;;7.70;99.90;;;;;;4971301;28;20137;-74
2023/02/12 08:11:17;;;;;;;16.40;6.68;;;7.70;99.90;;;;;;4971626;28;20088;-75
2023/02/12 08:13:43;;;;;;;14.15;7.07;;;7.70;99.90;;;;;;4972710;28;20364;-73
2023/02/12 08:16:15;;;;;;;14.48;6.28;;;7.70;99.90;;;;;;4972249;28;20335;-73
2023/02/12 08:18:41;;;;;;;14.93;6.85;;;7.80;99.90;;;;;;4980410;28;20106;-73
2023/02/12 08:21:12;;;;;;;13.57;6.25;;;7.80;99.90;;;;;;5003124;28;20078;-74
2023/02/12 08:23:38;;;;;;;12.20;5.60;;;7.80;99.90;;;;;;4969827;28;20085;-73
2023/02/12 08:26:13;;;;;;;11.60;5.47;;;7.70;99.90;;;;;;4964985;28;20034;-75
2023/02/12 08:28:42;;;;;;;11.63;6.03;;;7.80;99.90;;;;;;4974052;28;20038;-73
2023/02/12 08:31:13;;;;;;;11.50;5.28;;;7.80;99.90;;;;;;4978198;28;20121;-73
2023/02/12 08:33:39;;;;;;;17.88;6.53;;;7.80;99.90;;;;;;4966114;28;20054;-73
2023/02/12 08:36:10;;;;;;;12.00;5.18;;;7.80;99.90;;;;;;4974193;28;20476;-73
2023/02/12 08:38:36;;;;;;;14.57;6.00;;;7.80;99.90;;;;;;4971099;28;20383;-73
2023/02/12 08:41:04;;;;;;;10.63;5.28;;;7.80;99.90;;;;;;4968249;28;20043;-75
2023/02/12 08:43:30;;;;;;;11.45;5.20;;;7.80;99.90;;;;;;4970175;28;20089;-74
2023/02/12 08:46:13;;;;;;;9.40;5.20;;;7.90;99.90;;;;;;4964429;28;20035;-74
2023/02/12 08:48:40;;;;;;;11.50;5.45;;;8.00;99.90;;;;;;4966109;28;20038;-73
2023/02/12 08:51:17;;;;;;;12.65;4.80;;;8.00;99.90;;;;;;4969808;28;20105;-74
2023/02/12 08:53:50;;;;;;;12.75;6.10;;;8.00;99.90;;;;;;4991258;28;20479;-74
2023/02/12 08:56:17;;;;;;;10.73;5.60;;;8.00;99.90;;;;;;4987976;28;20066;-74
2023/02/12 08:58:43;;;;;;;9.52;5.00;;;8.00;99.90;;;;;;4963233;28;20035;-74
2023/02/12 09:01:14;;;;;;;14.00;6.50;;;8.10;99.90;;;;;;4973119;28;20479;-74
2023/02/12 09:03:41;;;;;;;12.25;5.80;;;8.10;99.90;;;;;;4974256;28;20082;-73
2023/02/12 09:06:07;;;;;;;13.25;4.90;;;8.10;99.90;;;;;;4967844;28;20549;-74
2023/02/12 09:08:33;;;;;;;12.18;5.25;;;8.10;99.90;;;;;;4973131;28;20114;-74
2023/02/12 09:11:02;;;;;;;10.93;5.80;;;8.10;99.90;;;;;;4969220;28;20117;-73
2023/02/12 09:13:28;;;;;;;9.98;4.85;;;8.20;99.90;;;;;;4970315;28;20115;-74
2023/02/12 09:15:53;;;;;;;11.57;5.75;;;8.20;99.90;;;;;;4969277;28;20121;-73
2023/02/12 09:18:19;;;;;;;13.45;5.22;;;8.20;99.90;;;;;;4972529;28;20081;-74
2023/02/12 09:20:45;;;;;;;10.57;5.40;;;8.20;99.90;;;;;;4967637;28;20039;-74
2023/02/12 09:23:13;;;;;;;13.75;5.30;;;8.20;99.90;;;;;;4969284;28;20106;-72
2023/02/12 09:25:41;;;;;;;11.57;5.10;;;8.20;99.90;;;;;;4966433;28;20423;-73
2023/02/12 09:28:07;;;;;;;8.82;4.68;;;8.30;99.90;;;;;;4968365;28;20042;-73
2023/02/12 09:30:32;;;;;;;12.13;4.60;;;8.40;99.90;;;;;;4967622;28;20090;-74
2023/02/12 09:32:58;;;;;;;10.95;5.32;;;8.40;99.90;;;;;;4968731;28;20039;-74
2023/02/12 09:35:24;;;;;;;8.93;4.82;;;8.40;99.90;;;;;;4971330;28;20047;-75
2023/02/12 09:37:52;;;;;;;11.48;4.97;;;8.40;99.90;;;;;;4968506;28;20149;-73
2023/02/12 09:40:42;;;;;;;10.20;5.03;;;8.50;99.90;;;;;;4966408;28;20599;-74
2023/02/12 09:43:27;;;;;;;10.25;4.80;;;8.60;99.90;;;;;;4964068;28;20038;-73
2023/02/12 09:46:31;;;;;;;9.20;4.63;;;8.60;99.90;;;;;;4981001;28;20035;-74
2023/02/12 09:49:09;;;;;;;9.50;4.43;;;8.60;99.90;;;;;;4964417;28;20062;-74
2023/02/12 09:51:37;;;;;;;8.57;4.72;;;8.60;99.90;;;;;;4972351;28;20126;-73
2023/02/12 09:54:11;;;;;;;9.93;4.65;;;8.60;99.90;;;;;;4964440;28;20046;-74
2023/02/12 09:56:39;;;;;;;8.18;4.60;;;8.70;99.90;;;;;;4966261;28;20121;-74
2023/02/12 09:59:06;;;;;;;8.48;4.60;;;8.70;99.90;;;;;;4969149;28;20074;-75
2023/02/12 10:01:32;;;;;;;10.13;4.50;;;8.70;99.90;;;;;;4966760;28;20130;-73
2023/02/12 10:03:59;;;;;;;8.68;4.72;;;8.80;99.90;;;;;;4965997;28;20062;-73
2023/02/12 10:06:27;;;;;;;8.52;4.55;;;8.80;99.90;;;;;;4968939;28;20039;-74
2023/02/12 10:09:30;;;;;;;8.68;4.32;;;8.90;99.90;;;;;;4964673;28;20127;-75
2023/02/12 10:12:17;;;;;;;10.52;5.55;;;8.90;99.90;;;;;;4967247;28;20078;-73
2023/02/12 10:15:01;;;;;;;10.32;5.13;;;8.90;99.90;;;;;;4963647;28;20046;-74
2023/02/12 10:17:29;;;;;;;10.57;5.03;;;9.00;99.90;;;;;;4966683;28;20041;-72
2023/02/12 10:20:24;;;;;;;10.73;6.07;;;8.90;99.90;;;;;;4966009;28;20043;-73
2023/02/12 10:23:18;;;;;;;13.27;5.15;;;9.00;99.90;;;;;;4980789;28;20065;-72
2023/02/12 10:25:49;;;;;;;10.52;4.90;;;9.00;99.90;;;;;;4998461;28;20062;-73
2023/02/12 10:28:20;;;;;;;8.82;4.78;;;9.10;99.90;;;;;;4969690;28;20035;-72
2023/02/12 10:30:59;;;;;;;11.10;5.95;;;9.10;99.90;;;;;;4966886;28;20039;-73
2023/02/12 10:33:27;;;;;;;9.23;4.88;;;9.10;99.90;;;;;;4970995;28;20642;-73
2023/02/12 10:36:13;;;;;;;8.80;4.75;;;9.10;99.90;;;;;;4970375;28;20050;-72
2023/02/12 10:38:44;;;;;;;9.40;5.38;;;9.10;99.90;;;;;;4968785;28;20027;-74
2023/02/12 10:41:14;;;;;;;13.10;5.22;;;9.10;99.90;;;;;;4970301;28;20038;-72
2023/02/12 10:43:40;;;;;;;10.20;5.15;;;9.10;99.90;;;;;;4970575;28;20038;-72
2023/02/12 10:46:05;;;;;;;11.00;5.07;;;9.10;99.90;;;;;;4970587;28;20399;-72
2023/02/12 10:48:38;;;;;;;10.07;5.50;;;9.10;99.90;;;;;;4968565;28;20095;-72
2023/02/12 10:51:07;;;;;;;12.70;6.30;;;9.10;99.90;;;;;;4968534;28;20038;-73
2023/02/12 10:53:34;;;;;;;10.75;4.88;;;9.20;99.90;;;;;;4966439;28;20191;-72
2023/02/12 10:56:18;;;;;;;11.52;5.03;;;9.20;99.90;;;;;;4967680;28;20057;-73
2023/02/12 10:58:49;;;;;;;14.90;6.20;;;9.10;99.90;;;;;;4968261;28;20067;-72
2023/02/12 11:01:21;;;;;;;9.45;5.18;;;9.10;99.90;;;;;;4970369;28;20395;-73
2023/02/12 11:03:47;;;;;;;13.82;5.43;;;9.20;99.90;;;;;;4975739;28;20522;-73
2023/02/12 11:06:24;;;;;;;15.93;5.47;;;9.20;99.90;;;;;;4985994;28;20037;-73
2023/02/12 11:08:50;;;;;;;10.82;5.43;;;9.20;99.90;;;;;;4971886;28;20038;-72
2023/02/12 11:11:27;;;;;;;12.52;5.28;;;9.20;99.90;;;;;;4988535;28;20550;-73
2023/02/12 11:14:03;;;;;;;12.48;5.95;;;9.30;99.90;;;;;;4992707;28;20038;-73
2023/02/12 11:16:30;;;;;;;9.30;5.40;;;9.20;99.90;;;;;;4972687;28;20030;-73
2023/02/12 11:19:01;;;;;;;10.23;5.38;;;9.20;99.90;;;;;;4971041;28;20042;-72
2023/02/12 11:21:27;;;;;;;10.30;5.20;;;9.20;99.90;;;;;;4976979;28;20048;-73
2023/02/12 11:23:53;;;;;;;11.38;5.25;;;9.30;99.90;;;;;;4977453;28;20125;-72
2023/02/12 11:26:18;;;;;;;13.63;5.78;;;9.30;99.90;;;;;;4970062;28;20034;-74
2023/02/12 11:29:00;;;;;;;10.18;5.53;;;9.30;99.90;;;;;;4969920;28;20122;-73
2023/02/12 11:31:30;;;;;;;14.40;5.53;;;9.30;99.90;;;;;;4973178;28;20046;-74
2023/02/12 11:34:11;;;;;;;;;;;9.40;99.90;;;;;;4978303;28;20476;-74
2023/02/12 11:36:47;;;;;;;9.18;4.82;;;9.40;99.90;;;;;;4974796;28;19918;-72
2023/02/12 11:39:18;;;;;;;13.52;5.75;;;9.30;99.90;;;;;;4973207;28;20049;-72
2023/02/12 11:41:43;;;;;;;13.07;5.43;;;9.30;99.90;;;;;;4976017;28;20507;-72
2023/02/12 11:44:18;;;;;;;12.25;4.80;;;9.30;99.90;;;;;;4968617;28;20046;-72
2023/02/12 11:46:54;;;;;;;10.63;5.50;;;9.30;99.90;;;;;;4971943;28;20065;-73
2023/02/12 11:49:27;;;;;;;18.30;6.45;;;9.40;99.90;;;;;;4965320;28;20034;-75
2023/02/12 11:51:54;;;;;;;11.75;5.95;;;9.30;99.90;;;;;;5003329;28;20395;-73
2023/02/12 11:54:27;;;;;;;13.10;4.90;;;9.30;99.90;;;;;;4967748;28;20066;-74
2023/02/12 11:56:54;;;;;;;12.73;6.22;;;9.30;99.90;;;;;;4962370;28;20054;-73
2023/02/12 11:59:35;;;;;;;13.68;5.57;;;9.30;99.90;;;;;;4980180;28;20038;-75
2023/02/12 12:02:24;;;;;;;10.73;5.25;;;9.30;99.90;;;;;;4968161;28;20074;-73
2023/02/12 12:04:53;;;;;;;12.73;6.00;;;9.30;99.90;;;;;;4970730;28;20037;-74
2023/02/12 12:07:28;;;;;;;10.93;6.05;;;9.30;99.90;;;;;;4970996;28;20022;-74
2023/02/12 12:10:00;;;;;;;11.75;5.50;;;9.30;99.90;;;;;;4965825;28;20050;-72
2023/02/12 12:12:36;;;;;;;15.40;5.97;;;9.30;99.90;;;;;;4971799;28;20058;-74
2023/02/12 12:21:25;;;;;;;10.80;5.10;;;9.30;99.90;;;;;;4974855;28;20170;-72
2023/02/12 12:23:54;;;;;;;10.52;4.97;;;9.30;99.90;;;;;;4960893;28;20038;-73
2023/02/12 12:26:25;;;;;;;10.95;5.55;;;9.30;99.90;;;;;;4973416;28;20125;-74
2023/02/12 12:28:52;;;;;;;10.45;5.18;;;9.30;99.90;;;;;;4993370;28;20503;-73
2023/02/12 12:31:42;;;;;;;9.68;5.32;;;9.40;99.90;;;;;;4992271;28;20061;-73
2023/02/12 12:34:16;;;;;;;14.00;5.53;;;9.40;99.90;;;;;;4976852;28;20042;-72
2023/02/12 12:37:06;;;;;;;8.98;5.15;;;9.30;99.90;;;;;;4978411;28;20030;-72
2023/02/12 12:39:52;;;;;;;11.35;5.85;;;9.30;99.90;;;;;;4984822;28;20031;-73
2023/02/12 12:42:33;;;;;;;9.60;5.35;;;9.40;99.90;;;;;;4969111;28;20076;-72
2023/02/12 12:45:20;;;;;;;8.40;4.97;;;9.40;99.90;;;;;;4985825;28;20562;-72
2023/02/12 12:48:00;;;;;;;10.13;5.68;;;9.40;99.90;;;;;;4990189;28;20034;-73
2023/02/12 12:50:52;;;;;;;8.98;4.55;;;9.40;99.90;;;;;;4962314;28;20100;-74
2023/02/12 12:53:43;;;;;;;9.00;4.82;;;9.30;99.90;;;;;;4997039;28;20049;-72
2023/02/12 12:56:27;;;;;;;10.10;4.65;;;9.30;99.90;;;;;;4982274;28;20061;-72
2023/02/12 12:59:08;;;;;;;9.48;4.65;;;9.30;99.90;;;;;;4995393;28;20162;-71
2023/02/12 13:02:25;;;;;;;7.80;4.07;;;9.40;99.90;;;;;;4984004;28;20049;-72
2023/02/12 13:04:56;;;;;;;10.18;4.88;;;9.40;99.90;;;;;;4941183;28;20054;-73
2023/02/12 13:07:38;;;;;;;9.40;4.55;;;9.40;99.90;;;;;;4968691;28;20452;-73
2023/02/12 13:10:25;;;;;;;9.63;4.82;;;9.40;99.90;;;;;;4965771;28;20117;-72
2023/02/12 13:12:58;;;;;;;12.07;4.32;;;9.40;99.90;;;;;;4984598;28;20041;-72
2023/02/12 13:15:40;;;;;;;7.40;4.30;;;9.50;99.90;;;;;;4966868;28;20454;-73
2023/02/12 13:18:27;;;;;;;9.85;4.72;;;9.40;99.90;;;;;;4988347;28;20542;-73
2023/02/12 13:21:01;;;;;;;10.20;5.30;;;9.40;99.90;;;;;;4986615;28;20049;-72